Leamington, Canada
Current Conditions -  °F | °C
As of 11:00 PM on Saturday 25 Oct 2014 (Local Time) from CYQG Reporting Station
Clear Clear  
Wind Chill: 54°   Ceiling: Unl
Heat Index: 54°   Visibility: 15mi
Dew Point: 34°   Wind: 10mph
Humidity: 47%   Direction: 280°W
Pressure: 29.8"   Gusts: NA
Location:  42.05°N, 82.6°W
Report Text: CYQG 260300Z 28009KT 15SM SKC 12/01 A2980 RMK SLP092
Loading
Personal Weather Stations






























Interactive Weather Map
Tropical Storm Tracking
New forecast layout! Learn more

10-Day Weather Forecast

Advertisements
Track Severe Weather on mobile